This is the latest recevied weather packets stored in our database for station/object NY3Q. If no packets are shown the sender has not sent any weather packets the latest 10 day(s).
| Time | Temp. | Humidity | Pressure | Rain* | Wind** | Luminosity | Snow |
|---|---|---|---|---|---|---|---|
| 1778077133 | 28.33° C | 59% | 1017.1 hPa | 0 mm | - | 347 W/m² | - |
| 1778076830 | 27.78° C | 61% | 1017.2 hPa | 0 mm | - | 435 W/m² | - |
| 1778076528 | 27.22° C | 64% | 1017.3 hPa | 0 mm | - | 398 W/m² | - |
| 1778076225 | 27.22° C | 63% | 1017.2 hPa | 0 mm | - | 383 W/m² | - |
| 1778075922 | 26.67° C | 65% | 1017.3 hPa | 0 mm | - | 368 W/m² | - |
| 1778075618 | 26.11° C | 65% | 1017.5 hPa | 0 mm | - | 276 W/m² | - |
| 1778075315 | 26.11° C | 66% | 1017.3 hPa | 0 mm | - | 329 W/m² | - |
| 1778075011 | 26.67° C | 65% | 1017.4 hPa | 0 mm | - | 296 W/m² | - |
| 1778074709 | 26.11° C | 67% | 1017.4 hPa | 0 mm | - | 265 W/m² | - |
| 1778074405 | 26.11° C | 66% | 1017.2 hPa | 0 mm | - | 264 W/m² | - |
| 1778074102 | 25.56° C | 69% | 1017.4 hPa | 0 mm | - | 283 W/m² | - |
| 1778073799 | 25.56° C | 69% | 1017.4 hPa | 0 mm | - | 261 W/m² | - |
| 1778073497 | 25° C | 70% | 1017.5 hPa | 0 mm | - | 202 W/m² | - |
| 1778073193 | 24.44° C | 70% | 1017.5 hPa | 0 mm | - | 223 W/m² | - |
| 1778072890 | 25° C | 69% | 1017.1 hPa | 0 mm | - | 168 W/m² | - |
| 1778072587 | 25° C | 69% | 1017.1 hPa | 0 mm | - | 114 W/m² | - |
| 1778072285 | 24.44° C | 71% | 1017.4 hPa | 0 mm | - | 169 W/m² | - |
| 1778071983 | 23.89° C | 71% | 1017.2 hPa | 0 mm | - | 150 W/m² | - |
| 1778071681 | 23.89° C | 71% | 1017 hPa | 0 mm | - | 184 W/m² | - |
| 1778071378 | 23.89° C | 72% | 1017.3 hPa | 0 mm | - | 179 W/m² | - |
| 1778071075 | 23.89° C | 73% | 1017.1 hPa | 0 mm | - | 138 W/m² | - |
| 1778070774 | 23.33° C | 75% | 1016.9 hPa | 0 mm | - | 162 W/m² | - |
| 1778070470 | 22.78° C | 77% | 1017 hPa | 0 mm | - | 150 W/m² | - |
| 1778070167 | 22.78° C | 79% | 1017 hPa | 0 mm | - | 123 W/m² | - |
| 1778069866 | 22.22° C | 83% | 1016.8 hPa | 0 mm | - | 127 W/m² | - |
* Rain latest hour (hover to see other rain measurements)
** Current wind speed in m/s (hover to see current wind gust speed)